createdAt,value
2022-11-17T00:00:38.375Z,6.80
2022-11-17T00:03:05.132Z,6.80
2022-11-17T00:05:31.954Z,6.90
2022-11-17T00:07:58.742Z,6.90
2022-11-17T00:10:25.607Z,6.90
2022-11-17T00:13:11.266Z,6.90
2022-11-17T00:15:38.165Z,6.90
2022-11-17T00:18:23.593Z,7.00
2022-11-17T00:21:09.373Z,7.00
2022-11-17T00:23:47.179Z,7.00
2022-11-17T00:26:19.631Z,7.00
2022-11-17T00:28:46.476Z,7.00
2022-11-17T00:31:32.876Z,7.10
2022-11-17T00:34:06.061Z,7.10
2022-11-17T00:36:35.747Z,7.10
2022-11-17T00:39:02.940Z,7.00
2022-11-17T00:41:29.904Z,7.00
2022-11-17T00:43:56.707Z,7.10
2022-11-17T00:46:23.647Z,7.10
2022-11-17T00:48:50.602Z,7.10
2022-11-17T00:51:17.542Z,7.10
2022-11-17T00:53:44.551Z,7.10
2022-11-17T00:56:11.434Z,7.20
2022-11-17T00:58:38.253Z,7.20
2022-11-17T01:01:05.660Z,7.10
2022-11-17T01:03:34.877Z,7.20
2022-11-17T01:06:13.502Z,7.10
2022-11-17T01:08:40.593Z,7.10
2022-11-17T01:11:11.451Z,7.10
2022-11-17T01:13:39.933Z,7.20
2022-11-17T01:16:09.394Z,7.20
2022-11-17T01:18:36.339Z,7.20
2022-11-17T01:21:10.405Z,7.20
2022-11-17T01:23:38.926Z,7.20
2022-11-17T01:26:09.661Z,7.20
2022-11-17T01:28:37.468Z,7.30
2022-11-17T01:31:13.402Z,7.30
2022-11-17T01:33:40.982Z,7.30
2022-11-17T01:36:16.315Z,7.30
2022-11-17T01:38:43.877Z,7.30
2022-11-17T01:41:17.620Z,7.40
2022-11-17T01:43:52.243Z,7.40
2022-11-17T01:46:28.055Z,7.40
2022-11-17T01:49:04.584Z,7.30
2022-11-17T01:51:33.434Z,7.20
2022-11-17T01:54:00.873Z,7.20
2022-11-17T01:56:33.042Z,7.20
2022-11-17T01:59:13.426Z,7.10
2022-11-17T02:01:55.738Z,7.10
2022-11-17T02:04:25.992Z,7.10
2022-11-17T02:06:59.702Z,7.10
2022-11-17T02:09:27.565Z,7.10
2022-11-17T02:11:58.634Z,7.10
2022-11-17T02:14:25.497Z,7.20
2022-11-17T02:16:52.393Z,7.30
2022-11-17T02:19:22.794Z,7.40
2022-11-17T02:22:40.539Z,7.40
2022-11-17T02:25:27.392Z,7.50
2022-11-17T02:28:13.466Z,7.50
2022-11-17T02:31:00.079Z,7.50
2022-11-17T02:33:48.053Z,7.50
2022-11-17T02:36:22.323Z,7.50
2022-11-17T02:38:59.085Z,7.60
2022-11-17T02:41:49.506Z,7.60
2022-11-17T02:44:39.949Z,7.60
2022-11-17T02:47:17.107Z,7.60
2022-11-17T02:49:53.690Z,7.60
2022-11-17T02:52:21.411Z,7.50
2022-11-17T02:54:48.194Z,7.50
2022-11-17T02:57:35.796Z,7.50
2022-11-17T03:00:14.918Z,7.50
2022-11-17T03:03:05.999Z,7.40
2022-11-17T03:05:38.323Z,7.30
2022-11-17T03:08:25.607Z,7.30
2022-11-17T03:11:04.045Z,7.30
2022-11-17T03:13:53.824Z,7.20
2022-11-17T03:16:34.754Z,7.20
2022-11-17T03:19:21.563Z,7.20
2022-11-17T03:21:56.993Z,7.10
2022-11-17T03:24:31.289Z,7.10
2022-11-17T03:27:17.930Z,7.10
2022-11-17T03:29:50.470Z,7.10
2022-11-17T03:32:19.013Z,7.10
2022-11-17T03:35:17.626Z,7.10
2022-11-17T03:37:52.112Z,7.10
2022-11-17T03:40:25.934Z,7.10
2022-11-17T03:42:57.465Z,7.10
2022-11-17T03:45:29.046Z,7.10
2022-11-17T03:48:05.026Z,7.10
2022-11-17T03:50:38.592Z,7.10
2022-11-17T03:53:06.618Z,7.10
2022-11-17T03:56:09.011Z,7.10
2022-11-17T03:58:44.390Z,7.10
2022-11-17T04:01:12.460Z,7.10
2022-11-17T04:03:40.012Z,7.20
2022-11-17T04:06:07.032Z,7.20
2022-11-17T04:08:33.901Z,7.20
2022-11-17T04:11:19.152Z,7.20
2022-11-17T04:14:04.839Z,7.10
2022-11-17T04:16:31.848Z,7.10
2022-11-17T04:18:59.254Z,7.20
2022-11-17T04:21:26.661Z,7.20
2022-11-17T04:23:53.517Z,7.20
2022-11-17T04:26:39.741Z,7.20
2022-11-17T04:29:06.493Z,7.20
2022-11-17T04:31:33.656Z,7.20
2022-11-17T04:34:05.706Z,7.30
2022-11-17T04:36:36.700Z,7.30
2022-11-17T04:39:04.061Z,7.30
2022-11-17T04:41:49.885Z,7.30
2022-11-17T04:44:17.782Z,7.30
2022-11-17T04:46:46.157Z,7.30
2022-11-17T04:49:14.532Z,7.30
2022-11-17T04:51:42.213Z,7.20
2022-11-17T04:54:10.570Z,7.20
2022-11-17T04:56:37.995Z,7.20
2022-11-17T04:59:05.672Z,7.20
2022-11-17T05:01:32.857Z,7.10
2022-11-17T05:04:08.325Z,7.10
2022-11-17T05:06:38.570Z,7.10
2022-11-17T05:09:11.338Z,7.00
2022-11-17T05:11:57.337Z,7.00
2022-11-17T05:14:25.730Z,7.00
2022-11-17T05:17:09.582Z,7.00
2022-11-17T05:19:45.969Z,6.90
2022-11-17T05:22:37.065Z,7.00
2022-11-17T05:25:04.983Z,7.00
2022-11-17T05:27:33.768Z,6.90
2022-11-17T05:30:01.649Z,6.90
2022-11-17T05:32:28.481Z,6.90
2022-11-17T05:34:55.248Z,6.80
2022-11-17T05:37:22.092Z,6.80
2022-11-17T05:39:48.927Z,6.80
2022-11-17T05:42:15.732Z,6.80
2022-11-17T05:44:42.739Z,6.80
2022-11-17T05:47:09.614Z,6.80
2022-11-17T05:49:36.429Z,6.80
2022-11-17T05:52:03.251Z,6.70
2022-11-17T05:54:30.107Z,6.70
2022-11-17T05:57:04.659Z,6.70
2022-11-17T05:59:33.900Z,6.70
2022-11-17T06:02:16.433Z,6.60
2022-11-17T06:04:44.169Z,6.70
2022-11-17T06:07:11.439Z,6.70
2022-11-17T06:09:41.775Z,6.70
2022-11-17T06:12:09.384Z,6.80
2022-11-17T06:14:37.633Z,6.90
2022-11-17T06:17:11.844Z,6.90
2022-11-17T06:19:42.645Z,6.90
2022-11-17T06:22:13.039Z,7.00
2022-11-17T06:24:43.351Z,7.00
2022-11-17T06:27:11.996Z,7.00
2022-11-17T06:29:43.945Z,7.00
2022-11-17T06:32:15.723Z,7.00
2022-11-17T06:34:49.083Z,7.00
2022-11-17T06:37:18.970Z,7.00
2022-11-17T06:39:45.849Z,7.10
2022-11-17T06:42:12.611Z,7.10
2022-11-17T06:44:39.455Z,7.10
2022-11-17T06:47:06.302Z,7.10
2022-11-17T06:49:33.056Z,7.20
2022-11-17T06:52:00.176Z,7.40
2022-11-17T06:54:26.994Z,7.50
2022-11-17T06:56:55.388Z,7.60
2022-11-17T06:59:22.228Z,7.70
2022-11-17T07:01:49.088Z,7.90
2022-11-17T07:04:15.957Z,7.90
2022-11-17T07:06:42.708Z,8.00
2022-11-17T07:09:09.597Z,8.00
2022-11-17T07:11:36.452Z,7.90
2022-11-17T07:14:03.577Z,8.00
2022-11-17T07:16:31.070Z,8.10
2022-11-17T07:18:59.265Z,8.10
2022-11-17T07:21:26.426Z,8.00
2022-11-17T07:23:53.578Z,8.00
2022-11-17T07:26:20.480Z,7.90
2022-11-17T07:28:47.298Z,7.90
2022-11-17T07:31:14.348Z,7.90
2022-11-17T07:33:41.204Z,7.90
2022-11-17T07:36:11.046Z,7.90
2022-11-17T07:38:39.676Z,7.90
2022-11-17T07:41:08.836Z,7.90
2022-11-17T07:43:36.948Z,7.90
2022-11-17T07:46:13.399Z,7.90
2022-11-17T07:48:41.442Z,8.00
2022-11-17T07:51:08.796Z,8.00
2022-11-17T07:53:36.124Z,7.90
2022-11-17T07:56:04.835Z,7.90
2022-11-17T07:58:32.348Z,8.00
2022-11-17T08:00:59.613Z,8.00
2022-11-17T08:03:26.440Z,8.00
2022-11-17T08:05:53.428Z,8.00
2022-11-17T08:08:20.199Z,8.10
2022-11-17T08:10:46.943Z,8.00
2022-11-17T08:13:15.441Z,8.00
2022-11-17T08:15:42.203Z,8.00
2022-11-17T08:18:09.008Z,7.90
2022-11-17T08:20:35.861Z,7.90
2022-11-17T08:23:02.628Z,7.80
2022-11-17T08:25:29.379Z,7.80
2022-11-17T08:27:57.776Z,7.80
2022-11-17T08:30:26.010Z,7.80
2022-11-17T08:32:53.983Z,7.80
2022-11-17T08:35:24.258Z,7.80
2022-11-17T08:37:51.494Z,7.80
2022-11-17T08:40:18.709Z,7.80
2022-11-17T08:42:46.441Z,7.80
2022-11-17T08:45:13.726Z,7.80
2022-11-17T08:47:40.714Z,7.80
2022-11-17T08:50:08.282Z,7.80
2022-11-17T08:52:35.120Z,7.70
2022-11-17T08:55:02.634Z,7.70
2022-11-17T08:57:30.631Z,7.70
2022-11-17T08:59:57.724Z,7.70
2022-11-17T09:02:24.634Z,7.70
2022-11-17T09:04:51.452Z,7.60
2022-11-17T09:07:18.424Z,7.60
2022-11-17T09:09:46.323Z,7.60
2022-11-17T09:12:13.329Z,7.70
2022-11-17T09:14:40.476Z,7.60
2022-11-17T09:17:07.692Z,7.70
2022-11-17T09:19:34.470Z,7.70
2022-11-17T09:22:01.611Z,7.80
2022-11-17T09:24:28.422Z,7.80
2022-11-17T09:26:57.367Z,7.80
2022-11-17T09:29:24.188Z,7.80
2022-11-17T09:31:51.006Z,7.70
2022-11-17T09:34:18.074Z,7.80
2022-11-17T09:36:44.987Z,7.80
2022-11-17T09:39:11.832Z,7.90
2022-11-17T09:41:46.687Z,7.90
2022-11-17T09:44:16.245Z,8.00
2022-11-17T09:47:03.084Z,8.00
2022-11-17T09:49:35.837Z,8.00
2022-11-17T09:52:15.765Z,8.10
2022-11-17T09:54:56.775Z,8.30
2022-11-17T09:57:39.715Z,8.80
2022-11-17T10:00:19.856Z,9.10
2022-11-17T10:02:47.780Z,9.30
2022-11-17T10:05:19.637Z,9.20
2022-11-17T10:07:50.085Z,9.10
2022-11-17T10:10:33.658Z,9.10
2022-11-17T10:13:04.479Z,9.20
2022-11-17T10:15:41.701Z,9.20
2022-11-17T10:18:14.428Z,9.20
2022-11-17T10:20:43.087Z,9.10
2022-11-17T10:23:18.802Z,9.20
2022-11-17T10:25:56.684Z,9.30
2022-11-17T10:28:24.958Z,9.40
2022-11-17T10:31:00.669Z,9.50
2022-11-17T10:33:39.612Z,9.50
2022-11-17T10:36:28.776Z,9.70
2022-11-17T10:39:00.379Z,9.80
2022-11-17T10:41:40.503Z,9.90
2022-11-17T10:44:23.972Z,10.30
2022-11-17T10:47:04.089Z,11.00
2022-11-17T10:49:36.355Z,11.30
2022-11-17T10:52:23.683Z,11.50
2022-11-17T10:54:50.470Z,11.70
2022-11-17T10:57:23.324Z,12.10
2022-11-17T10:59:59.145Z,12.50
2022-11-17T11:02:37.075Z,12.60
2022-11-17T11:05:12.991Z,13.00
2022-11-17T11:07:40.798Z,13.50
2022-11-17T11:10:17.269Z,13.10
2022-11-17T11:13:02.340Z,13.50
2022-11-17T11:15:36.031Z,13.70
2022-11-17T11:18:16.298Z,14.00
2022-11-17T11:21:04.644Z,14.30
2022-11-17T11:23:37.652Z,14.00
2022-11-17T11:26:10.242Z,14.00
2022-11-17T11:29:09.564Z,14.10
2022-11-17T11:31:54.795Z,14.00
2022-11-17T11:34:38.391Z,13.70
2022-11-17T11:37:12.377Z,13.60
2022-11-17T11:40:09.877Z,13.70
2022-11-17T11:42:43.957Z,13.80
2022-11-17T11:45:19.262Z,13.80
2022-11-17T11:47:57.981Z,13.70
2022-11-17T11:50:27.671Z,13.70
2022-11-17T11:53:03.706Z,13.50
2022-11-17T11:55:37.545Z,13.40
2022-11-17T11:58:14.351Z,13.30
2022-11-17T12:00:42.802Z,13.50
2022-11-17T12:03:15.561Z,13.40
2022-11-17T12:06:23.197Z,13.50
2022-11-17T12:09:11.746Z,13.60
2022-11-17T12:11:59.906Z,13.70
2022-11-17T12:14:33.179Z,14.00
2022-11-17T12:17:07.496Z,13.90
2022-11-17T12:19:57.350Z,14.10
2022-11-17T12:22:29.934Z,13.80
2022-11-17T12:25:00.416Z,13.80
2022-11-17T12:27:36.287Z,13.60
2022-11-17T12:30:05.646Z,13.40
2022-11-17T12:32:44.578Z,13.50
2022-11-17T12:35:35.757Z,13.50
2022-11-17T12:38:17.520Z,13.60
2022-11-17T12:40:46.473Z,13.70
2022-11-17T12:43:16.329Z,13.90
2022-11-17T12:45:58.378Z,13.90
2022-11-17T12:48:34.398Z,13.80
2022-11-17T12:51:15.475Z,13.80
2022-11-17T12:53:53.672Z,13.60
2022-11-17T12:56:27.972Z,13.40
2022-11-17T12:58:54.771Z,13.10
2022-11-17T13:01:33.405Z,12.80
2022-11-17T13:04:26.844Z,12.80
2022-11-17T13:07:05.319Z,12.50
2022-11-17T13:09:34.851Z,12.50
2022-11-17T13:12:04.459Z,12.40
2022-11-17T13:14:35.996Z,12.50
2022-11-17T13:17:03.227Z,12.60
2022-11-17T13:19:41.663Z,12.60
2022-11-17T13:22:16.628Z,12.50
2022-11-17T13:24:46.741Z,12.80
2022-11-17T13:27:25.186Z,13.10
2022-11-17T13:29:52.929Z,13.50
2022-11-17T13:32:21.323Z,13.50
2022-11-17T13:34:51.675Z,13.60
2022-11-17T13:37:21.523Z,13.60
2022-11-17T13:40:22.558Z,13.30
2022-11-17T13:42:50.167Z,13.10
2022-11-17T13:45:17.187Z,13.00
2022-11-17T13:47:49.122Z,12.90
2022-11-17T13:50:30.973Z,12.80
2022-11-17T13:53:22.788Z,12.60
2022-11-17T13:55:50.369Z,12.40
2022-11-17T13:58:29.513Z,12.30
2022-11-17T14:00:58.130Z,12.10
2022-11-17T14:03:40.630Z,12.00
2022-11-17T14:06:10.089Z,11.90
2022-11-17T14:08:38.720Z,11.90
2022-11-17T14:11:11.578Z,12.00
2022-11-17T14:13:39.874Z,11.80
2022-11-17T14:16:25.735Z,11.80
2022-11-17T14:19:23.709Z,11.80
2022-11-17T14:22:00.941Z,11.80
2022-11-17T14:24:28.377Z,11.80
2022-11-17T14:26:56.091Z,11.70
2022-11-17T14:29:23.017Z,11.60
2022-11-17T14:31:49.812Z,11.70
2022-11-17T14:34:17.367Z,11.70
2022-11-17T14:36:45.159Z,11.60
2022-11-17T14:39:18.015Z,11.40
2022-11-17T14:41:47.022Z,11.30
2022-11-17T14:44:14.125Z,11.30
2022-11-17T14:46:40.951Z,11.20
2022-11-17T14:49:07.915Z,11.20
2022-11-17T14:51:35.769Z,11.20
2022-11-17T14:54:03.883Z,11.10
2022-11-17T14:56:30.848Z,11.10
2022-11-17T14:58:59.169Z,11.00
2022-11-17T15:01:32.334Z,11.00
2022-11-17T15:04:15.368Z,10.90
2022-11-17T15:06:48.808Z,10.80
2022-11-17T15:09:16.533Z,10.70
2022-11-17T15:11:43.413Z,10.70
2022-11-17T15:14:10.993Z,10.60
2022-11-17T15:16:38.241Z,10.70
2022-11-17T15:19:05.473Z,10.70
2022-11-17T15:21:32.281Z,10.70
2022-11-17T15:24:02.045Z,10.60
2022-11-17T15:26:29.000Z,10.60
2022-11-17T15:28:57.889Z,10.60
2022-11-17T15:31:24.745Z,10.50
2022-11-17T15:33:51.581Z,10.50
2022-11-17T15:36:20.777Z,10.40
2022-11-17T15:38:47.905Z,10.30
2022-11-17T15:41:15.727Z,10.30
2022-11-17T15:43:44.605Z,10.30
2022-11-17T15:46:13.987Z,10.30
2022-11-17T15:48:45.081Z,10.30
2022-11-17T15:51:15.070Z,10.30
2022-11-17T15:53:43.223Z,10.20
2022-11-17T15:56:22.900Z,10.20
2022-11-17T15:59:04.950Z,10.10
2022-11-17T16:01:39.050Z,10.10
2022-11-17T16:04:11.323Z,10.10
2022-11-17T16:06:39.969Z,10.10
2022-11-17T16:09:07.958Z,10.10
2022-11-17T16:11:35.874Z,10.00
2022-11-17T16:14:03.020Z,9.90
2022-11-17T16:16:35.675Z,9.80
2022-11-17T16:19:03.080Z,9.70
2022-11-17T16:21:29.880Z,9.70
2022-11-17T16:23:57.881Z,9.60
2022-11-17T16:26:26.590Z,9.40
2022-11-17T16:29:01.735Z,9.30
2022-11-17T16:31:30.546Z,9.20
2022-11-17T16:34:05.064Z,9.20
2022-11-17T16:36:36.810Z,9.10
2022-11-17T16:39:09.400Z,9.10
2022-11-17T16:41:39.121Z,9.00
2022-11-17T16:44:16.788Z,9.00
2022-11-17T16:46:45.879Z,8.90
2022-11-17T16:49:15.161Z,8.90
2022-11-17T16:51:47.625Z,8.80
2022-11-17T16:54:15.493Z,8.80
2022-11-17T16:56:42.641Z,8.80
2022-11-17T16:59:12.651Z,8.80
2022-11-17T17:01:39.627Z,8.70
2022-11-17T17:04:08.885Z,8.70
2022-11-17T17:06:37.441Z,8.70
2022-11-17T17:09:06.361Z,8.70
2022-11-17T17:11:35.736Z,8.60
2022-11-17T17:14:04.744Z,8.60
2022-11-17T17:16:33.430Z,8.50
2022-11-17T17:19:04.026Z,8.50
2022-11-17T17:21:31.624Z,8.60
2022-11-17T17:23:58.464Z,8.60
2022-11-17T17:26:27.567Z,8.70
2022-11-17T17:28:56.852Z,8.70
2022-11-17T17:31:25.605Z,8.70
2022-11-17T17:33:54.623Z,8.80
2022-11-17T17:36:24.190Z,8.70
2022-11-17T17:38:56.135Z,8.70
2022-11-17T17:41:26.173Z,8.60
2022-11-17T17:44:03.406Z,8.50
2022-11-17T17:46:33.339Z,8.50
2022-11-17T17:49:00.266Z,8.50
2022-11-17T17:51:29.118Z,8.50
2022-11-17T17:53:58.571Z,8.50
2022-11-17T17:56:25.604Z,8.50
2022-11-17T17:58:55.373Z,8.50
2022-11-17T18:01:27.964Z,8.60
2022-11-17T18:04:07.356Z,8.70
2022-11-17T18:06:38.674Z,8.70
2022-11-17T18:09:07.745Z,8.70
2022-11-17T18:11:35.703Z,8.60
2022-11-17T18:14:03.509Z,8.50
2022-11-17T18:16:32.691Z,8.40
2022-11-17T18:19:04.916Z,8.30
2022-11-17T18:21:32.336Z,8.20
2022-11-17T18:24:01.307Z,8.10
2022-11-17T18:26:31.238Z,8.00
2022-11-17T18:29:18.405Z,8.00
2022-11-17T18:31:47.252Z,7.90
2022-11-17T18:34:21.069Z,7.90
2022-11-17T18:36:52.436Z,7.80
2022-11-17T18:39:19.944Z,7.80
2022-11-17T18:41:47.268Z,7.70
2022-11-17T18:44:15.406Z,7.70
2022-11-17T18:46:42.266Z,7.70
2022-11-17T18:49:09.324Z,7.60
2022-11-17T18:51:36.148Z,7.60
2022-11-17T18:54:03.693Z,7.60
2022-11-17T18:56:37.799Z,7.60
2022-11-17T18:59:11.136Z,7.60
2022-11-17T19:01:42.253Z,7.60
2022-11-17T19:04:10.476Z,7.50
2022-11-17T19:06:37.450Z,7.50
2022-11-17T19:09:04.261Z,7.50
2022-11-17T19:11:32.804Z,7.50
2022-11-17T19:14:07.192Z,7.40
2022-11-17T19:16:42.661Z,7.40
2022-11-17T19:19:10.815Z,7.40
2022-11-17T19:21:37.622Z,7.30
2022-11-17T19:24:05.240Z,7.30
2022-11-17T19:26:34.549Z,7.20
2022-11-17T19:29:04.222Z,7.20
2022-11-17T19:31:31.683Z,7.10
2022-11-17T19:33:58.872Z,7.10
2022-11-17T19:36:29.410Z,7.10
2022-11-17T19:38:57.959Z,7.00
2022-11-17T19:41:25.795Z,7.10
2022-11-17T19:43:54.393Z,7.00
2022-11-17T19:46:22.159Z,6.90
2022-11-17T19:48:49.278Z,6.90
2022-11-17T19:51:22.263Z,6.90
2022-11-17T19:53:53.707Z,6.90
2022-11-17T19:56:21.305Z,6.80
2022-11-17T19:58:49.889Z,6.80
2022-11-17T20:01:19.405Z,6.80
2022-11-17T20:03:46.836Z,6.70
2022-11-17T20:06:16.325Z,6.80
2022-11-17T20:08:43.645Z,6.80
2022-11-17T20:11:11.554Z,6.80
2022-11-17T20:13:39.217Z,6.80
2022-11-17T20:16:11.963Z,6.80
2022-11-17T20:18:40.574Z,6.80
2022-11-17T20:21:08.305Z,6.90
2022-11-17T20:23:36.034Z,6.90
2022-11-17T20:26:08.341Z,6.90
2022-11-17T20:28:36.593Z,6.90
2022-11-17T20:31:19.229Z,6.90
2022-11-17T20:33:47.644Z,6.90
2022-11-17T20:36:17.265Z,6.90
2022-11-17T20:38:44.654Z,6.90
2022-11-17T20:41:11.693Z,6.90
2022-11-17T20:43:38.609Z,6.80
2022-11-17T20:46:05.949Z,6.90
2022-11-17T20:48:35.255Z,6.90
2022-11-17T20:51:05.776Z,6.90
2022-11-17T20:53:33.146Z,6.90
2022-11-17T20:56:02.353Z,6.90
2022-11-17T20:58:30.029Z,6.90
2022-11-17T21:00:57.113Z,6.90
2022-11-17T21:03:25.808Z,6.90
2022-11-17T21:05:59.151Z,6.90
2022-11-17T21:08:29.411Z,6.90
2022-11-17T21:11:06.298Z,6.90
2022-11-17T21:13:34.415Z,6.90
2022-11-17T21:16:05.474Z,6.90
2022-11-17T21:18:32.658Z,6.90
2022-11-17T21:21:04.622Z,6.90
2022-11-17T21:23:31.559Z,6.90
2022-11-17T21:26:02.478Z,7.00
2022-11-17T21:28:29.358Z,6.90
2022-11-17T21:31:03.156Z,6.80
2022-11-17T21:33:29.916Z,6.70
2022-11-17T21:36:01.753Z,6.70
2022-11-17T21:38:29.613Z,6.70
2022-11-17T21:41:01.895Z,6.70
2022-11-17T21:43:29.169Z,6.70
2022-11-17T21:46:01.457Z,6.70
2022-11-17T21:48:28.409Z,6.60
2022-11-17T21:50:55.513Z,6.60
2022-11-17T21:53:22.408Z,6.70
2022-11-17T21:55:49.162Z,6.60
2022-11-17T21:58:15.922Z,6.60
2022-11-17T22:00:43.004Z,6.50
2022-11-17T22:03:10.737Z,6.40
2022-11-17T22:05:37.565Z,6.30
2022-11-17T22:08:04.459Z,6.30
2022-11-17T22:10:31.234Z,6.30
2022-11-17T22:12:58.109Z,6.30
2022-11-17T22:15:24.870Z,6.30
2022-11-17T22:17:52.142Z,6.30
2022-11-17T22:20:19.085Z,6.20
2022-11-17T22:22:47.638Z,6.20
2022-11-17T22:25:43.022Z,6.20
2022-11-17T22:28:01.367Z,6.10
2022-11-17T22:30:28.481Z,6.10
2022-11-17T22:32:55.768Z,6.00
2022-11-17T22:35:22.576Z,5.90
2022-11-17T22:37:49.518Z,5.90
2022-11-17T22:40:16.357Z,5.90
2022-11-17T22:42:43.387Z,5.80
2022-11-17T22:45:10.471Z,5.80
2022-11-17T22:47:37.328Z,5.80
2022-11-17T22:50:04.832Z,5.70
2022-11-17T22:52:31.619Z,5.70
2022-11-17T22:54:58.367Z,5.70
2022-11-17T22:57:25.345Z,5.80
2022-11-17T22:59:52.111Z,5.80
2022-11-17T23:02:18.959Z,5.80
2022-11-17T23:04:45.738Z,5.70
2022-11-17T23:07:12.573Z,5.70
2022-11-17T23:09:39.549Z,5.70
2022-11-17T23:12:06.634Z,5.60
2022-11-17T23:14:33.475Z,5.70
2022-11-17T23:17:00.293Z,5.60
2022-11-17T23:19:27.084Z,5.60
2022-11-17T23:21:53.826Z,5.70
2022-11-17T23:24:20.756Z,5.70
2022-11-17T23:26:47.625Z,5.60
2022-11-17T23:29:14.791Z,5.60
2022-11-17T23:31:41.902Z,5.60
2022-11-17T23:34:12.069Z,5.70
2022-11-17T23:36:39.159Z,5.70
2022-11-17T23:39:06.306Z,5.80
2022-11-17T23:41:33.142Z,5.80
2022-11-17T23:43:59.946Z,5.90
2022-11-17T23:46:27.334Z,5.90
2022-11-17T23:48:56.202Z,5.90
2022-11-17T23:51:25.843Z,6.00
2022-11-17T23:53:53.223Z,6.00
2022-11-17T23:56:20.730Z,6.00
2022-11-17T23:58:48.142Z,6.00
